sensor_id;sensor_type;location;lat;lon;timestamp;temperature;humidity
46309;DHT22;32037;50.820;6.494;2023-04-15T00:00:56;13.20;71.00
46309;DHT22;32037;50.820;6.494;2023-04-15T00:03:27;13.20;71.00
46309;DHT22;32037;50.820;6.494;2023-04-15T00:05:56;13.20;71.00
46309;DHT22;32037;50.820;6.494;2023-04-15T00:08:26;13.20;71.10
46309;DHT22;32037;50.820;6.494;2023-04-15T00:10:54;13.10;71.20
46309;DHT22;32037;50.820;6.494;2023-04-15T00:13:25;13.20;71.50
46309;DHT22;32037;50.820;6.494;2023-04-15T00:15:54;13.10;71.30
46309;DHT22;32037;50.820;6.494;2023-04-15T00:18:23;13.20;71.30
46309;DHT22;32037;50.820;6.494;2023-04-15T00:20:53;13.20;71.30
46309;DHT22;32037;50.820;6.494;2023-04-15T00:23:22;13.20;71.20
46309;DHT22;32037;50.820;6.494;2023-04-15T00:25:50;13.10;71.00
46309;DHT22;32037;50.820;6.494;2023-04-15T00:28:19;13.10;71.40
46309;DHT22;32037;50.820;6.494;2023-04-15T00:30:48;13.10;71.20
46309;DHT22;32037;50.820;6.494;2023-04-15T00:33:17;13.10;71.00
46309;DHT22;32037;50.820;6.494;2023-04-15T00:35:46;13.10;71.10
46309;DHT22;32037;50.820;6.494;2023-04-15T00:38:16;13.10;71.00
46309;DHT22;32037;50.820;6.494;2023-04-15T00:40:45;13.10;71.30
46309;DHT22;32037;50.820;6.494;2023-04-15T00:43:13;13.10;71.30
46309;DHT22;32037;50.820;6.494;2023-04-15T00:45:43;13.10;71.30
46309;DHT22;32037;50.820;6.494;2023-04-15T00:48:13;13.10;71.30
46309;DHT22;32037;50.820;6.494;2023-04-15T00:50:42;13.10;71.40
46309;DHT22;32037;50.820;6.494;2023-04-15T00:53:11;13.10;71.40
46309;DHT22;32037;50.820;6.494;2023-04-15T00:55:41;13.10;71.30
46309;DHT22;32037;50.820;6.494;2023-04-15T00:58:10;13.10;71.40
46309;DHT22;32037;50.820;6.494;2023-04-15T01:00:42;13.10;71.60
46309;DHT22;32037;50.820;6.494;2023-04-15T01:03:10;13.10;71.70
46309;DHT22;32037;50.820;6.494;2023-04-15T01:05:39;13.10;71.70
46309;DHT22;32037;50.820;6.494;2023-04-15T01:08:08;13.10;72.00
46309;DHT22;32037;50.820;6.494;2023-04-15T01:10:37;13.10;72.00
46309;DHT22;32037;50.820;6.494;2023-04-15T01:13:07;13.10;71.90
46309;DHT22;32037;50.820;6.494;2023-04-15T01:15:36;13.10;71.70
46309;DHT22;32037;50.820;6.494;2023-04-15T01:18:05;13.10;71.70
46309;DHT22;32037;50.820;6.494;2023-04-15T01:20:37;13.10;71.70
46309;DHT22;32037;50.820;6.494;2023-04-15T01:23:06;13.10;72.10
46309;DHT22;32037;50.820;6.494;2023-04-15T01:25:35;13.10;72.00
46309;DHT22;32037;50.820;6.494;2023-04-15T01:28:04;13.10;71.90
46309;DHT22;32037;50.820;6.494;2023-04-15T01:30:33;13.10;72.00
46309;DHT22;32037;50.820;6.494;2023-04-15T01:33:02;13.10;71.80
46309;DHT22;32037;50.820;6.494;2023-04-15T01:35:30;13.00;72.00
46309;DHT22;32037;50.820;6.494;2023-04-15T01:38:02;13.00;71.40
46309;DHT22;32037;50.820;6.494;2023-04-15T01:40:32;13.00;72.10
46309;DHT22;32037;50.820;6.494;2023-04-15T01:43:02;13.00;72.10
46309;DHT22;32037;50.820;6.494;2023-04-15T01:45:31;13.00;72.00
46309;DHT22;32037;50.820;6.494;2023-04-15T01:48:03;13.00;71.90
46309;DHT22;32037;50.820;6.494;2023-04-15T01:50:32;13.00;71.90
46309;DHT22;32037;50.820;6.494;2023-04-15T01:53:03;13.00;71.90
46309;DHT22;32037;50.820;6.494;2023-04-15T01:55:31;13.00;71.90
46309;DHT22;32037;50.820;6.494;2023-04-15T01:58:01;13.00;72.10
46309;DHT22;32037;50.820;6.494;2023-04-15T02:00:30;13.00;71.90
46309;DHT22;32037;50.820;6.494;2023-04-15T02:02:59;13.00;72.00
46309;DHT22;32037;50.820;6.494;2023-04-15T02:05:27;13.00;71.90
46309;DHT22;32037;50.820;6.494;2023-04-15T02:07:56;13.00;71.80
46309;DHT22;32037;50.820;6.494;2023-04-15T02:10:25;13.00;71.80
46309;DHT22;32037;50.820;6.494;2023-04-15T02:12:54;13.00;72.00
46309;DHT22;32037;50.820;6.494;2023-04-15T02:15:28;13.00;72.10
46309;DHT22;32037;50.820;6.494;2023-04-15T02:17:56;13.00;71.90
46309;DHT22;32037;50.820;6.494;2023-04-15T02:20:27;13.00;72.20
46309;DHT22;32037;50.820;6.494;2023-04-15T02:22:57;13.00;72.10
46309;DHT22;32037;50.820;6.494;2023-04-15T02:25:26;13.00;72.00
46309;DHT22;32037;50.820;6.494;2023-04-15T02:27:56;13.00;72.00
46309;DHT22;32037;50.820;6.494;2023-04-15T02:30:25;13.00;72.10
46309;DHT22;32037;50.820;6.494;2023-04-15T02:32:55;13.00;72.30
46309;DHT22;32037;50.820;6.494;2023-04-15T02:35:24;13.00;72.40
46309;DHT22;32037;50.820;6.494;2023-04-15T02:37:53;12.90;72.10
46309;DHT22;32037;50.820;6.494;2023-04-15T02:40:22;12.90;72.10
46309;DHT22;32037;50.820;6.494;2023-04-15T02:42:51;12.90;72.40
46309;DHT22;32037;50.820;6.494;2023-04-15T02:45:19;12.90;72.30
46309;DHT22;32037;50.820;6.494;2023-04-15T02:47:50;12.90;72.30
46309;DHT22;32037;50.820;6.494;2023-04-15T02:50:20;12.90;72.30
46309;DHT22;32037;50.820;6.494;2023-04-15T02:52:50;12.90;72.20
46309;DHT22;32037;50.820;6.494;2023-04-15T02:55:19;12.90;72.20
46309;DHT22;32037;50.820;6.494;2023-04-15T02:57:48;12.90;72.50
46309;DHT22;32037;50.820;6.494;2023-04-15T03:00:16;12.90;72.50
46309;DHT22;32037;50.820;6.494;2023-04-15T03:02:49;12.90;72.40
46309;DHT22;32037;50.820;6.494;2023-04-15T03:05:24;12.90;72.30
46309;DHT22;32037;50.820;6.494;2023-04-15T03:07:53;12.90;72.60
46309;DHT22;32037;50.820;6.494;2023-04-15T03:10:22;12.90;72.30
46309;DHT22;32037;50.820;6.494;2023-04-15T03:12:51;12.90;72.40
46309;DHT22;32037;50.820;6.494;2023-04-15T03:15:22;12.80;72.30
46309;DHT22;32037;50.820;6.494;2023-04-15T03:17:52;12.80;72.50
46309;DHT22;32037;50.820;6.494;2023-04-15T03:20:21;12.80;72.30
46309;DHT22;32037;50.820;6.494;2023-04-15T03:22:51;12.80;72.70
46309;DHT22;32037;50.820;6.494;2023-04-15T03:25:22;12.80;72.60
46309;DHT22;32037;50.820;6.494;2023-04-15T03:27:50;12.80;72.60
46309;DHT22;32037;50.820;6.494;2023-04-15T03:30:19;12.90;72.60
46309;DHT22;32037;50.820;6.494;2023-04-15T03:32:48;12.80;72.70
46309;DHT22;32037;50.820;6.494;2023-04-15T03:35:17;12.80;72.50
46309;DHT22;32037;50.820;6.494;2023-04-15T03:37:45;12.80;72.90
46309;DHT22;32037;50.820;6.494;2023-04-15T03:40:16;12.80;73.00
46309;DHT22;32037;50.820;6.494;2023-04-15T03:42:45;12.80;72.90
46309;DHT22;32037;50.820;6.494;2023-04-15T03:45:13;12.80;73.10
46309;DHT22;32037;50.820;6.494;2023-04-15T03:47:42;12.80;72.90
46309;DHT22;32037;50.820;6.494;2023-04-15T03:50:11;12.80;73.10
46309;DHT22;32037;50.820;6.494;2023-04-15T03:52:39;12.80;73.00
46309;DHT22;32037;50.820;6.494;2023-04-15T03:55:08;12.80;72.90
46309;DHT22;32037;50.820;6.494;2023-04-15T03:57:38;12.80;72.90
46309;DHT22;32037;50.820;6.494;2023-04-15T04:00:09;12.80;72.80
46309;DHT22;32037;50.820;6.494;2023-04-15T04:02:40;12.80;73.00
46309;DHT22;32037;50.820;6.494;2023-04-15T04:05:09;12.70;73.00
46309;DHT22;32037;50.820;6.494;2023-04-15T04:07:37;12.70;73.10
46309;DHT22;32037;50.820;6.494;2023-04-15T04:10:07;12.70;73.00
46309;DHT22;32037;50.820;6.494;2023-04-15T04:12:35;12.80;73.10
46309;DHT22;32037;50.820;6.494;2023-04-15T04:15:07;12.70;73.10
46309;DHT22;32037;50.820;6.494;2023-04-15T04:17:35;12.70;73.20
46309;DHT22;32037;50.820;6.494;2023-04-15T04:20:05;12.70;74.70
46309;DHT22;32037;50.820;6.494;2023-04-15T04:22:36;12.70;73.20
46309;DHT22;32037;50.820;6.494;2023-04-15T04:25:06;12.70;73.10
46309;DHT22;32037;50.820;6.494;2023-04-15T04:27:35;12.70;73.30
46309;DHT22;32037;50.820;6.494;2023-04-15T04:30:06;12.70;73.40
46309;DHT22;32037;50.820;6.494;2023-04-15T04:32:35;12.70;73.30
46309;DHT22;32037;50.820;6.494;2023-04-15T04:35:04;12.70;73.50
46309;DHT22;32037;50.820;6.494;2023-04-15T04:37:33;12.70;73.60
46309;DHT22;32037;50.820;6.494;2023-04-15T04:40:02;12.70;73.50
46309;DHT22;32037;50.820;6.494;2023-04-15T04:42:31;12.70;73.60
46309;DHT22;32037;50.820;6.494;2023-04-15T04:44:59;12.70;73.40
46309;DHT22;32037;50.820;6.494;2023-04-15T04:47:30;12.60;73.40
46309;DHT22;32037;50.820;6.494;2023-04-15T04:49:59;12.60;73.20
46309;DHT22;32037;50.820;6.494;2023-04-15T04:52:27;12.60;73.30
46309;DHT22;32037;50.820;6.494;2023-04-15T04:54:56;12.60;73.40
46309;DHT22;32037;50.820;6.494;2023-04-15T04:57:24;12.60;73.50
46309;DHT22;32037;50.820;6.494;2023-04-15T04:59:53;12.60;73.40
46309;DHT22;32037;50.820;6.494;2023-04-15T05:02:22;12.60;73.70
46309;DHT22;32037;50.820;6.494;2023-04-15T05:04:55;12.60;73.60
46309;DHT22;32037;50.820;6.494;2023-04-15T05:07:23;12.60;73.60
46309;DHT22;32037;50.820;6.494;2023-04-15T05:09:52;12.60;73.80
46309;DHT22;32037;50.820;6.494;2023-04-15T05:12:20;12.60;73.90
46309;DHT22;32037;50.820;6.494;2023-04-15T05:14:49;12.60;73.80
46309;DHT22;32037;50.820;6.494;2023-04-15T05:17:18;12.60;74.30
46309;DHT22;32037;50.820;6.494;2023-04-15T05:19:46;12.60;74.40
46309;DHT22;32037;50.820;6.494;2023-04-15T05:22:17;12.60;74.30
46309;DHT22;32037;50.820;6.494;2023-04-15T05:24:45;12.60;74.40
46309;DHT22;32037;50.820;6.494;2023-04-15T05:27:14;12.60;74.30
46309;DHT22;32037;50.820;6.494;2023-04-15T05:29:42;12.60;74.20
46309;DHT22;32037;50.820;6.494;2023-04-15T05:32:11;12.50;74.20
46309;DHT22;32037;50.820;6.494;2023-04-15T05:34:39;12.50;74.10
46309;DHT22;32037;50.820;6.494;2023-04-15T05:37:08;12.50;74.20
46309;DHT22;32037;50.820;6.494;2023-04-15T05:39:38;12.50;74.50
46309;DHT22;32037;50.820;6.494;2023-04-15T05:42:07;12.50;74.70
46309;DHT22;32037;50.820;6.494;2023-04-15T05:44:35;12.50;74.40
46309;DHT22;32037;50.820;6.494;2023-04-15T05:47:04;12.50;74.60
46309;DHT22;32037;50.820;6.494;2023-04-15T05:49:34;12.50;74.70
46309;DHT22;32037;50.820;6.494;2023-04-15T05:52:02;12.50;74.70
46309;DHT22;32037;50.820;6.494;2023-04-15T05:54:31;12.50;74.80
46309;DHT22;32037;50.820;6.494;2023-04-15T05:57:01;12.50;76.10
46309;DHT22;32037;50.820;6.494;2023-04-15T05:59:30;12.50;74.90
46309;DHT22;32037;50.820;6.494;2023-04-15T06:01:59;12.50;74.80
46309;DHT22;32037;50.820;6.494;2023-04-15T06:04:27;12.50;74.90
46309;DHT22;32037;50.820;6.494;2023-04-15T06:06:56;12.50;74.70
46309;DHT22;32037;50.820;6.494;2023-04-15T06:09:25;12.50;74.90
46309;DHT22;32037;50.820;6.494;2023-04-15T06:11:55;12.50;74.70
46309;DHT22;32037;50.820;6.494;2023-04-15T06:14:25;12.50;74.80
46309;DHT22;32037;50.820;6.494;2023-04-15T06:16:54;12.50;74.90
46309;DHT22;32037;50.820;6.494;2023-04-15T06:19:23;12.50;75.20
46309;DHT22;32037;50.820;6.494;2023-04-15T06:21:52;12.50;75.10
46309;DHT22;32037;50.820;6.494;2023-04-15T06:24:21;12.50;75.20
46309;DHT22;32037;50.820;6.494;2023-04-15T06:26:49;12.50;75.10
46309;DHT22;32037;50.820;6.494;2023-04-15T06:29:18;12.50;75.10
46309;DHT22;32037;50.820;6.494;2023-04-15T06:31:48;12.40;75.20
46309;DHT22;32037;50.820;6.494;2023-04-15T06:34:16;12.40;75.20
46309;DHT22;32037;50.820;6.494;2023-04-15T06:36:45;12.50;75.40
46309;DHT22;32037;50.820;6.494;2023-04-15T06:39:14;12.20;65.20
46309;DHT22;32037;50.820;6.494;2023-04-15T06:41:43;12.10;68.20
46309;DHT22;32037;50.820;6.494;2023-04-15T06:44:11;12.10;69.60
46309;DHT22;32037;50.820;6.494;2023-04-15T06:46:40;12.10;70.40
46309;DHT22;32037;50.820;6.494;2023-04-15T06:49:10;12.20;71.40
46309;DHT22;32037;50.820;6.494;2023-04-15T06:51:41;12.20;71.50
46309;DHT22;32037;50.820;6.494;2023-04-15T06:54:09;12.20;71.40
46309;DHT22;32037;50.820;6.494;2023-04-15T06:56:42;12.30;71.50
46309;DHT22;32037;50.820;6.494;2023-04-15T06:59:10;12.30;71.50
46309;DHT22;32037;50.820;6.494;2023-04-15T07:01:40;12.30;71.50
46309;DHT22;32037;50.820;6.494;2023-04-15T07:04:10;12.30;71.70
46309;DHT22;32037;50.820;6.494;2023-04-15T07:06:39;12.40;72.10
46309;DHT22;32037;50.820;6.494;2023-04-15T07:09:08;12.30;72.20
46309;DHT22;32037;50.820;6.494;2023-04-15T07:11:37;12.30;72.20
46309;DHT22;32037;50.820;6.494;2023-04-15T07:14:05;12.30;72.50
46309;DHT22;32037;50.820;6.494;2023-04-15T07:16:34;12.30;72.80
46309;DHT22;32037;50.820;6.494;2023-04-15T07:19:03;12.30;73.00
46309;DHT22;32037;50.820;6.494;2023-04-15T07:21:33;12.40;73.10
46309;DHT22;32037;50.820;6.494;2023-04-15T07:24:02;12.40;71.10
46309;DHT22;32037;50.820;6.494;2023-04-15T07:26:33;12.50;70.60
46309;DHT22;32037;50.820;6.494;2023-04-15T07:29:02;12.50;69.90
46309;DHT22;32037;50.820;6.494;2023-04-15T07:31:31;12.50;69.10
46309;DHT22;32037;50.820;6.494;2023-04-15T07:34:00;12.50;67.60
46309;DHT22;32037;50.820;6.494;2023-04-15T07:36:28;12.50;67.20
46309;DHT22;32037;50.820;6.494;2023-04-15T07:38:58;12.40;65.70
46309;DHT22;32037;50.820;6.494;2023-04-15T07:41:28;12.40;68.40
46309;DHT22;32037;50.820;6.494;2023-04-15T07:43:57;12.30;64.80
46309;DHT22;32037;50.820;6.494;2023-04-15T07:46:26;12.20;66.00
46309;DHT22;32037;50.820;6.494;2023-04-15T07:48:55;12.10;66.90
46309;DHT22;32037;50.820;6.494;2023-04-15T07:51:24;12.20;68.30
46309;DHT22;32037;50.820;6.494;2023-04-15T07:53:53;12.20;69.30
46309;DHT22;32037;50.820;6.494;2023-04-15T07:56:23;12.20;69.80
46309;DHT22;32037;50.820;6.494;2023-04-15T07:58:52;12.20;69.90
46309;DHT22;32037;50.820;6.494;2023-04-15T08:01:21;12.30;70.30
46309;DHT22;32037;50.820;6.494;2023-04-15T08:03:50;12.30;70.70
46309;DHT22;32037;50.820;6.494;2023-04-15T08:06:19;12.30;70.90
46309;DHT22;32037;50.820;6.494;2023-04-15T08:08:48;12.30;71.10
46309;DHT22;32037;50.820;6.494;2023-04-15T08:11:20;12.30;71.20
46309;DHT22;32037;50.820;6.494;2023-04-15T08:13:51;12.40;71.30
46309;DHT22;32037;50.820;6.494;2023-04-15T08:16:21;12.30;71.30
46309;DHT22;32037;50.820;6.494;2023-04-15T08:18:52;12.30;71.40
46309;DHT22;32037;50.820;6.494;2023-04-15T08:21:21;12.30;71.50
46309;DHT22;32037;50.820;6.494;2023-04-15T08:23:51;12.30;71.70
46309;DHT22;32037;50.820;6.494;2023-04-15T08:26:20;12.30;71.90
46309;DHT22;32037;50.820;6.494;2023-04-15T08:28:51;12.30;72.10
46309;DHT22;32037;50.820;6.494;2023-04-15T08:31:19;12.30;72.10
46309;DHT22;32037;50.820;6.494;2023-04-15T08:33:48;12.30;72.20
46309;DHT22;32037;50.820;6.494;2023-04-15T08:36:18;12.30;72.40
46309;DHT22;32037;50.820;6.494;2023-04-15T08:38:47;12.30;72.60
46309;DHT22;32037;50.820;6.494;2023-04-15T08:41:20;12.30;72.60
46309;DHT22;32037;50.820;6.494;2023-04-15T08:43:57;12.30;72.80
46309;DHT22;32037;50.820;6.494;2023-04-15T08:46:26;12.40;73.10
46309;DHT22;32037;50.820;6.494;2023-04-15T08:48:56;12.30;73.00
46309;DHT22;32037;50.820;6.494;2023-04-15T08:51:27;12.30;73.10
46309;DHT22;32037;50.820;6.494;2023-04-15T08:53:56;12.30;73.20
46309;DHT22;32037;50.820;6.494;2023-04-15T08:56:25;12.40;73.30
46309;DHT22;32037;50.820;6.494;2023-04-15T08:58:56;12.40;73.50
46309;DHT22;32037;50.820;6.494;2023-04-15T09:03:55;12.60;75.20
46309;DHT22;32037;50.820;6.494;2023-04-15T09:06:24;12.70;75.10
46309;DHT22;32037;50.820;6.494;2023-04-15T09:08:53;12.70;74.50
46309;DHT22;32037;50.820;6.494;2023-04-15T09:11:22;12.80;74.50
46309;DHT22;32037;50.820;6.494;2023-04-15T09:13:51;12.80;74.50
46309;DHT22;32037;50.820;6.494;2023-04-15T09:16:21;12.80;74.30
46309;DHT22;32037;50.820;6.494;2023-04-15T09:18:50;12.80;74.40
46309;DHT22;32037;50.820;6.494;2023-04-15T09:21:19;12.90;74.40
46309;DHT22;32037;50.820;6.494;2023-04-15T09:23:57;12.80;73.90
46309;DHT22;32037;50.820;6.494;2023-04-15T09:26:33;12.90;73.30
46309;DHT22;32037;50.820;6.494;2023-04-15T09:29:04;12.90;74.50
46309;DHT22;32037;50.820;6.494;2023-04-15T09:31:35;12.90;74.20
46309;DHT22;32037;50.820;6.494;2023-04-15T09:34:04;12.90;74.20
46309;DHT22;32037;50.820;6.494;2023-04-15T09:36:51;13.00;74.30
46309;DHT22;32037;50.820;6.494;2023-04-15T09:39:20;13.00;74.70
46309;DHT22;32037;50.820;6.494;2023-04-15T09:42:04;13.00;74.90
46309;DHT22;32037;50.820;6.494;2023-04-15T09:44:34;13.00;75.50
46309;DHT22;32037;50.820;6.494;2023-04-15T09:47:04;13.00;75.30
46309;DHT22;32037;50.820;6.494;2023-04-15T09:49:33;13.00;75.30
46309;DHT22;32037;50.820;6.494;2023-04-15T09:52:02;13.00;75.20
46309;DHT22;32037;50.820;6.494;2023-04-15T09:54:37;13.00;75.00
46309;DHT22;32037;50.820;6.494;2023-04-15T09:57:06;13.00;74.90
46309;DHT22;32037;50.820;6.494;2023-04-15T09:59:36;13.00;74.80
46309;DHT22;32037;50.820;6.494;2023-04-15T10:02:06;13.00;74.70
46309;DHT22;32037;50.820;6.494;2023-04-15T10:04:43;13.00;73.10
46309;DHT22;32037;50.820;6.494;2023-04-15T10:07:25;13.00;73.20
46309;DHT22;32037;50.820;6.494;2023-04-15T10:09:55;13.00;73.30
46309;DHT22;32037;50.820;6.494;2023-04-15T10:12:25;12.90;73.20
46309;DHT22;32037;50.820;6.494;2023-04-15T10:14:57;12.90;73.20
46309;DHT22;32037;50.820;6.494;2023-04-15T10:17:28;12.90;73.10
46309;DHT22;32037;50.820;6.494;2023-04-15T10:20:00;12.90;73.50
46309;DHT22;32037;50.820;6.494;2023-04-15T10:22:30;12.90;73.10
46309;DHT22;32037;50.820;6.494;2023-04-15T10:24:59;13.00;73.50
46309;DHT22;32037;50.820;6.494;2023-04-15T10:27:28;13.00;73.10
46309;DHT22;32037;50.820;6.494;2023-04-15T10:29:59;13.00;73.40
46309;DHT22;32037;50.820;6.494;2023-04-15T10:32:31;13.00;73.40
46309;DHT22;32037;50.820;6.494;2023-04-15T10:35:00;13.00;74.10
46309;DHT22;32037;50.820;6.494;2023-04-15T10:37:34;13.00;74.60
46309;DHT22;32037;50.820;6.494;2023-04-15T10:40:28;13.00;73.90
46309;DHT22;32037;50.820;6.494;2023-04-15T10:42:58;13.10;74.60
46309;DHT22;32037;50.820;6.494;2023-04-15T10:45:32;13.10;74.10
46309;DHT22;32037;50.820;6.494;2023-04-15T10:48:05;13.10;73.60
46309;DHT22;32037;50.820;6.494;2023-04-15T10:50:34;13.10;73.90
46309;DHT22;32037;50.820;6.494;2023-04-15T10:53:09;13.10;73.70
46309;DHT22;32037;50.820;6.494;2023-04-15T10:55:38;13.10;74.80
46309;DHT22;32037;50.820;6.494;2023-04-15T10:58:09;13.10;73.40
46309;DHT22;32037;50.820;6.494;2023-04-15T11:00:37;13.10;73.50
46309;DHT22;32037;50.820;6.494;2023-04-15T11:03:08;13.10;73.90
46309;DHT22;32037;50.820;6.494;2023-04-15T11:05:50;13.10;74.00
46309;DHT22;32037;50.820;6.494;2023-04-15T11:08:20;13.10;74.10
46309;DHT22;32037;50.820;6.494;2023-04-15T11:11:08;13.10;74.00
46309;DHT22;32037;50.820;6.494;2023-04-15T11:13:46;13.20;75.10
46309;DHT22;32037;50.820;6.494;2023-04-15T11:16:16;13.20;73.40
46309;DHT22;32037;50.820;6.494;2023-04-15T11:18:54;13.10;73.30
46309;DHT22;32037;50.820;6.494;2023-04-15T11:21:24;13.10;72.80
46309;DHT22;32037;50.820;6.494;2023-04-15T11:23:54;13.10;72.90
46309;DHT22;32037;50.820;6.494;2023-04-15T11:26:25;13.10;72.70
46309;DHT22;32037;50.820;6.494;2023-04-15T11:28:54;13.10;72.60
46309;DHT22;32037;50.820;6.494;2023-04-15T11:31:26;13.10;72.60
46309;DHT22;32037;50.820;6.494;2023-04-15T11:33:58;13.10;72.70
46309;DHT22;32037;50.820;6.494;2023-04-15T11:36:29;13.10;73.10
46309;DHT22;32037;50.820;6.494;2023-04-15T11:38:59;13.10;73.10
46309;DHT22;32037;50.820;6.494;2023-04-15T11:41:28;13.10;72.90
46309;DHT22;32037;50.820;6.494;2023-04-15T11:43:56;13.10;72.90
46309;DHT22;32037;50.820;6.494;2023-04-15T11:46:28;13.10;73.40
46309;DHT22;32037;50.820;6.494;2023-04-15T11:48:59;13.10;73.20
46309;DHT22;32037;50.820;6.494;2023-04-15T11:51:31;13.10;73.20
46309;DHT22;32037;50.820;6.494;2023-04-15T11:54:00;13.10;73.60
46309;DHT22;32037;50.820;6.494;2023-04-15T11:56:30;13.20;73.90
46309;DHT22;32037;50.820;6.494;2023-04-15T11:58:59;13.20;73.80
46309;DHT22;32037;50.820;6.494;2023-04-15T12:01:31;13.20;73.90
46309;DHT22;32037;50.820;6.494;2023-04-15T12:04:10;13.20;74.10
46309;DHT22;32037;50.820;6.494;2023-04-15T12:06:39;13.20;73.90
46309;DHT22;32037;50.820;6.494;2023-04-15T12:09:09;13.20;73.90
46309;DHT22;32037;50.820;6.494;2023-04-15T12:11:40;13.20;74.20
46309;DHT22;32037;50.820;6.494;2023-04-15T12:14:12;13.20;75.00
46309;DHT22;32037;50.820;6.494;2023-04-15T12:16:42;13.20;74.70
46309;DHT22;32037;50.820;6.494;2023-04-15T12:19:22;13.20;74.70
46309;DHT22;32037;50.820;6.494;2023-04-15T12:21:53;13.10;74.80
46309;DHT22;32037;50.820;6.494;2023-04-15T12:24:27;13.10;74.90
46309;DHT22;32037;50.820;6.494;2023-04-15T12:27:01;13.10;75.20
46309;DHT22;32037;50.820;6.494;2023-04-15T12:29:30;13.10;75.40
46309;DHT22;32037;50.820;6.494;2023-04-15T12:32:04;13.00;75.50
46309;DHT22;32037;50.820;6.494;2023-04-15T12:34:36;13.00;75.80
46309;DHT22;32037;50.820;6.494;2023-04-15T12:37:07;13.00;75.70
46309;DHT22;32037;50.820;6.494;2023-04-15T12:39:37;13.00;76.00
46309;DHT22;32037;50.820;6.494;2023-04-15T12:42:07;13.00;76.10
46309;DHT22;32037;50.820;6.494;2023-04-15T12:44:36;13.00;76.20
46309;DHT22;32037;50.820;6.494;2023-04-15T12:47:06;13.00;76.30
46309;DHT22;32037;50.820;6.494;2023-04-15T12:49:37;13.00;76.30
46309;DHT22;32037;50.820;6.494;2023-04-15T12:52:07;13.00;76.30
46309;DHT22;32037;50.820;6.494;2023-04-15T12:54:36;13.00;77.00
46309;DHT22;32037;50.820;6.494;2023-04-15T12:57:04;13.00;76.70
46309;DHT22;32037;50.820;6.494;2023-04-15T12:59:34;13.00;76.30
46309;DHT22;32037;50.820;6.494;2023-04-15T13:02:02;13.00;76.20
46309;DHT22;32037;50.820;6.494;2023-04-15T13:04:31;13.00;76.10
46309;DHT22;32037;50.820;6.494;2023-04-15T13:07:02;13.10;76.40
46309;DHT22;32037;50.820;6.494;2023-04-15T13:09:30;13.00;75.90
46309;DHT22;32037;50.820;6.494;2023-04-15T13:11:59;13.10;76.20
46309;DHT22;32037;50.820;6.494;2023-04-15T13:14:29;13.00;76.00
46309;DHT22;32037;50.820;6.494;2023-04-15T13:16:58;13.00;76.30
46309;DHT22;32037;50.820;6.494;2023-04-15T13:19:27;13.00;76.30
46309;DHT22;32037;50.820;6.494;2023-04-15T13:21:56;13.00;76.10
46309;DHT22;32037;50.820;6.494;2023-04-15T13:24:26;13.00;76.10
46309;DHT22;32037;50.820;6.494;2023-04-15T13:26:54;13.00;76.20
46309;DHT22;32037;50.820;6.494;2023-04-15T13:29:25;13.00;76.30
46309;DHT22;32037;50.820;6.494;2023-04-15T13:31:54;13.00;76.40
46309;DHT22;32037;50.820;6.494;2023-04-15T13:34:23;13.00;76.50
46309;DHT22;32037;50.820;6.494;2023-04-15T13:36:53;13.00;76.70
46309;DHT22;32037;50.820;6.494;2023-04-15T13:39:22;13.00;76.80
46309;DHT22;32037;50.820;6.494;2023-04-15T13:41:52;12.90;76.70
46309;DHT22;32037;50.820;6.494;2023-04-15T13:44:24;12.90;76.60
46309;DHT22;32037;50.820;6.494;2023-04-15T13:46:52;13.00;76.70
46309;DHT22;32037;50.820;6.494;2023-04-15T13:49:21;13.00;76.80
46309;DHT22;32037;50.820;6.494;2023-04-15T13:51:50;13.10;76.90
46309;DHT22;32037;50.820;6.494;2023-04-15T13:54:18;13.10;76.30
46309;DHT22;32037;50.820;6.494;2023-04-15T13:56:47;13.10;76.40
46309;DHT22;32037;50.820;6.494;2023-04-15T13:59:18;13.00;76.40
46309;DHT22;32037;50.820;6.494;2023-04-15T14:01:46;13.00;76.50
46309;DHT22;32037;50.820;6.494;2023-04-15T14:04:15;13.00;76.60
46309;DHT22;32037;50.820;6.494;2023-04-15T14:06:44;13.00;76.60
46309;DHT22;32037;50.820;6.494;2023-04-15T14:09:13;13.00;76.50
46309;DHT22;32037;50.820;6.494;2023-04-15T14:11:42;13.00;76.30
46309;DHT22;32037;50.820;6.494;2023-04-15T14:14:10;13.00;76.30
46309;DHT22;32037;50.820;6.494;2023-04-15T14:16:43;13.10;76.60
46309;DHT22;32037;50.820;6.494;2023-04-15T14:19:12;13.10;76.70
46309;DHT22;32037;50.820;6.494;2023-04-15T14:21:40;13.10;76.70
46309;DHT22;32037;50.820;6.494;2023-04-15T14:24:12;13.10;77.00
46309;DHT22;32037;50.820;6.494;2023-04-15T14:26:47;13.10;76.70
46309;DHT22;32037;50.820;6.494;2023-04-15T14:29:16;13.00;77.30
46309;DHT22;32037;50.820;6.494;2023-04-15T14:31:46;13.00;77.10
46309;DHT22;32037;50.820;6.494;2023-04-15T14:34:35;13.00;77.00
46309;DHT22;32037;50.820;6.494;2023-04-15T14:37:03;13.00;77.30
46309;DHT22;32037;50.820;6.494;2023-04-15T14:39:32;13.00;77.30
46309;DHT22;32037;50.820;6.494;2023-04-15T14:42:01;13.00;77.10
46309;DHT22;32037;50.820;6.494;2023-04-15T14:44:29;13.00;77.00
46309;DHT22;32037;50.820;6.494;2023-04-15T14:46:59;13.00;76.80
46309;DHT22;32037;50.820;6.494;2023-04-15T14:49:28;13.00;76.80
46309;DHT22;32037;50.820;6.494;2023-04-15T14:51:57;13.00;77.00
46309;DHT22;32037;50.820;6.494;2023-04-15T14:54:25;13.00;77.00
46309;DHT22;32037;50.820;6.494;2023-04-15T14:56:54;13.00;76.90
46309;DHT22;32037;50.820;6.494;2023-04-15T14:59:23;13.00;76.90
46309;DHT22;32037;50.820;6.494;2023-04-15T15:01:52;13.00;77.30
46309;DHT22;32037;50.820;6.494;2023-04-15T15:04:22;13.00;76.90
46309;DHT22;32037;50.820;6.494;2023-04-15T15:06:51;13.00;77.00
46309;DHT22;32037;50.820;6.494;2023-04-15T15:09:19;13.10;77.10
46309;DHT22;32037;50.820;6.494;2023-04-15T15:11:49;13.10;77.10
46309;DHT22;32037;50.820;6.494;2023-04-15T15:14:19;13.10;77.20
46309;DHT22;32037;50.820;6.494;2023-04-15T15:16:48;13.10;77.20
46309;DHT22;32037;50.820;6.494;2023-04-15T15:19:17;13.10;77.00
46309;DHT22;32037;50.820;6.494;2023-04-15T15:21:47;13.10;77.50
46309;DHT22;32037;50.820;6.494;2023-04-15T15:24:16;13.10;77.40
46309;DHT22;32037;50.820;6.494;2023-04-15T15:26:45;13.10;77.50
46309;DHT22;32037;50.820;6.494;2023-04-15T15:29:14;13.10;77.90
46309;DHT22;32037;50.820;6.494;2023-04-15T15:31:42;13.10;78.10
46309;DHT22;32037;50.820;6.494;2023-04-15T15:34:12;13.10;77.80
46309;DHT22;32037;50.820;6.494;2023-04-15T15:36:41;13.10;77.80
46309;DHT22;32037;50.820;6.494;2023-04-15T15:39:11;13.10;77.90
46309;DHT22;32037;50.820;6.494;2023-04-15T15:41:40;13.10;77.90
46309;DHT22;32037;50.820;6.494;2023-04-15T15:44:08;13.10;78.00
46309;DHT22;32037;50.820;6.494;2023-04-15T15:46:37;13.10;78.20
46309;DHT22;32037;50.820;6.494;2023-04-15T15:49:06;13.10;78.70